CMA CGM Castilla — V7LZ7 — position and weather

sailwx.info

Track history (hours):
 
Tides and Currents Weather Stations Pressure Air Temp Water Temp Dewpoint Dewpoint Depression Visibility Wind Speed Wind Dir Waves Ship Positions

CMA CGM Castilla

Last reported at 2016-May-03 23:06 UTC. Time now 2016-May-05 06:40 UTC.
Position N 34°39' E 034°07'.

Length 194 m; beam 28.2 m; draft 11.5 m.

Type: Ship. MMSI: 538090285.

Date/timePositionNaut miles runAvg speedWind from/ knotsBaromVisibWave heightAir tempDewpointWater temp
2016-May-03 23:06N 34°39' E 034°07'1014.6
2016-May-03 22:24N 34°48' E 034°12'97 5.1
2016-May-03 03:29N 36°18' E 034°56'61 1.3
2016-May-01 04:17N 35°32' E 035°46'0 0.0
2016-May-01 03:32N 35°32' E 035°46'0 0.0
2016-May-01 02:32N 35°32' E 035°46'0 0.0
2016-May-01 01:32N 35°32' E 035°46'0 0.0
2016-May-01 00:32N 35°32' E 035°46'0 0.0
2016-Apr-30 23:32N 35°32' E 035°46'0 0.0
2016-Apr-30 22:23N 35°32' E 035°46'0 0.0
2016-Apr-30 21:32N 35°32' E 035°46'0 0.0
2016-Apr-30 20:29N 35°32' E 035°46'0 0.0
2016-Apr-30 19:17N 35°32' E 035°46'0 0.0
2016-Apr-30 18:32N 35°32' E 035°46'0 0.0
2016-Apr-30 17:20N 35°32' E 035°46'0 0.1
2016-Apr-30 16:33N 35°32' E 035°46'2 2.0
2016-Apr-30 15:25N 35°32' E 035°43'1111.2
2016-Apr-30 14:25N 35°31' E 035°30'1315.1
2016-Apr-30 13:33N 35°20' E 035°21'1515.1
2016-Apr-30 12:34N 35°07' E 035°12'1515.1
2016-Apr-30 11:34N 34°55' E 035°02'1714.4
2016-Apr-30 10:24N 34°39' E 034°54'1012.4
2016-Apr-30 09:34N 34°33' E 034°44'1414.4
2016-Apr-30 08:33N 34°20' E 034°36'1515.4
2016-Apr-30 07:34N 34°07' E 034°27'1616.1
2016-Apr-30 06:34N 33°53' E 034°16'2018.6
2016-Apr-30 05:28N 33°36' E 034°04'1415.6
2016-Apr-30 04:33N 33°23' E 033°55'1815.3
2016-Apr-30 03:21N 33°08' E 033°44'1215.0
2016-Apr-30 02:34N 32°58' E 033°36'1615.4
2016-Apr-30 01:33N 32°44' E 033°26'1515.3
2016-Apr-30 00:34N 32°31' E 033°17'3515.3
2016-Apr-29 22:15N 32°01' E 032°55'1414.8
2016-Apr-29 21:19N 31°50' E 032°46'1013.6
2016-Apr-29 20:34N 31°45' E 032°35'1514.8
2016-Apr-29 19:31N 31°44' E 032°17'1414.9
2016-Apr-29 18:34N 31°45' E 032°01'  
2016-Apr-26 04:33N 31°57' E 032°37'1614.8
2016-Apr-26 03:27N 32°13' E 032°40'1111.4
2016-Apr-26 02:28N 32°24' E 032°45'1212.9
2016-Apr-26 01:33N 32°35' E 032°42'1313.0
2016-Apr-26 00:33N 32°47' E 032°46'1313.2
2016-Apr-25 23:33N 33°00' E 032°48'1414.3
2016-Apr-25 22:33N 33°15' E 032°51'1514.9
2016-Apr-25 21:33N 33°29' E 032°54'1515.0
2016-Apr-25 20:33N 33°44' E 032°57'1515.0
2016-Apr-25 19:33N 33°59' E 032°59'1714.9
2016-Apr-25 18:27N 34°15' E 033°02'1415.2
2016-Apr-25 17:33N 34°29' E 033°05'1110.7
2016-Apr-25 16:34N 34°39' E 033°01'0 0.2
2016-Apr-25 15:26N 34°39' E 033°01'0 0.0
2016-Apr-25 14:32N 34°39' E 033°01'0 0.0
2016-Apr-25 13:32N 34°39' E 033°01'0 0.0
2016-Apr-25 12:32N 34°39' E 033°01'0 0.0
2016-Apr-25 11:32N 34°39' E 033°01'0 0.0
2016-Apr-25 10:32N 34°39' E 033°01'0 0.0
2016-Apr-25 09:32N 34°39' E 033°01'0 0.0
2016-Apr-25 08:32N 34°39' E 033°01'0 0.0
2016-Apr-25 07:32N 34°39' E 033°01'0 0.0
2016-Apr-25 06:20N 34°39' E 033°01'0 0.0
2016-Apr-25 05:32N 34°39' E 033°01'0 0.0
2016-Apr-25 04:17N 34°39' E 033°01'1 1.4
2016-Apr-25 03:33N 34°39' E 033°02'3 3.0
2016-Apr-25 02:34N 34°40' E 033°05'0 0.0
2016-Apr-24 22:20N 34°40' E 033°05'0 0.0
2016-Apr-24 19:16N 34°40' E 033°05'0 0.2
2016-Apr-24 18:28N 34°40' E 033°05'0 0.1
2016-Apr-24 17:31N 34°40' E 033°05'0 0.2
2016-Apr-24 16:33N 34°40' E 033°05'6 6.3
2016-Apr-24 15:33N 34°39' E 033°13'1515.0
2016-Apr-24 14:34N 34°43' E 033°30'1515.1
2016-Apr-24 13:33N 34°49' E 033°48'1514.8
2016-Apr-24 12:33N 34°54' E 034°04'1414.3
2016-Apr-24 11:33N 35°01' E 034°20'1414.1
2016-Apr-24 10:33N 35°08' E 034°35'1514.7
2016-Apr-24 09:33N 35°15' E 034°51'1514.7
2016-Apr-24 08:33N 35°22' E 035°07'2014.6
2016-Apr-24 07:11N 35°31' E 035°28'1014.6
2016-Apr-24 06:31N 35°32' E 035°40'5 5.0
2016-Apr-24 05:33N 35°32' E 035°46'0 0.0
2016-Apr-24 04:33N 35°32' E 035°46'0 0.0
2016-Apr-24 03:33N 35°32' E 035°46'0 0.0
2016-Apr-24 02:33N 35°32' E 035°46'0 0.0
2016-Apr-24 01:33N 35°32' E 035°46'0 0.0
2016-Apr-24 00:33N 35°32' E 035°46'0 0.0
2016-Apr-23 23:33N 35°32' E 035°46'  
Track history (hours):
 
Tides and Currents Weather Stations Pressure Air Temp Water Temp Dewpoint Dewpoint Depression Visibility Wind Speed Wind Dir Waves Ship Positions

CMA CGM Castilla

Last reported at 2016-May-03 23:06 UTC. Time now 2016-May-05 06:40 UTC.
Position N 34°39' E 034°07'.

Length 194 m; beam 28.2 m; draft 11.5 m.

Type: Ship. MMSI: 538090285.

Date/timePositionNaut miles runAvg speedWind from/ knotsBaromVisibWave heightAir tempDewpointWater temp
2016-May-03 23:06N 34°39' E 034°07'1014.6
2016-May-03 22:24N 34°48' E 034°12'97 5.1
2016-May-03 03:29N 36°18' E 034°56'61 1.3
2016-May-01 04:17N 35°32' E 035°46'0 0.0
2016-May-01 03:32N 35°32' E 035°46'0 0.0
2016-May-01 02:32N 35°32' E 035°46'0 0.0
2016-May-01 01:32N 35°32' E 035°46'0 0.0
2016-May-01 00:32N 35°32' E 035°46'0 0.0
2016-Apr-30 23:32N 35°32' E 035°46'0 0.0
2016-Apr-30 22:23N 35°32' E 035°46'0 0.0
2016-Apr-30 21:32N 35°32' E 035°46'0 0.0
2016-Apr-30 20:29N 35°32' E 035°46'0 0.0
2016-Apr-30 19:17N 35°32' E 035°46'0 0.0
2016-Apr-30 18:32N 35°32' E 035°46'0 0.0
2016-Apr-30 17:20N 35°32' E 035°46'0 0.1
2016-Apr-30 16:33N 35°32' E 035°46'2 2.0
2016-Apr-30 15:25N 35°32' E 035°43'1111.2
2016-Apr-30 14:25N 35°31' E 035°30'1315.1
2016-Apr-30 13:33N 35°20' E 035°21'1515.1
2016-Apr-30 12:34N 35°07' E 035°12'1515.1
2016-Apr-30 11:34N 34°55' E 035°02'1714.4
2016-Apr-30 10:24N 34°39' E 034°54'1012.4
2016-Apr-30 09:34N 34°33' E 034°44'1414.4
2016-Apr-30 08:33N 34°20' E 034°36'1515.4
2016-Apr-30 07:34N 34°07' E 034°27'1616.1
2016-Apr-30 06:34N 33°53' E 034°16'2018.6
2016-Apr-30 05:28N 33°36' E 034°04'1415.6
2016-Apr-30 04:33N 33°23' E 033°55'1815.3
2016-Apr-30 03:21N 33°08' E 033°44'1215.0
2016-Apr-30 02:34N 32°58' E 033°36'1615.4
2016-Apr-30 01:33N 32°44' E 033°26'1515.3
2016-Apr-30 00:34N 32°31' E 033°17'3515.3
2016-Apr-29 22:15N 32°01' E 032°55'1414.8
2016-Apr-29 21:19N 31°50' E 032°46'1013.6
2016-Apr-29 20:34N 31°45' E 032°35'1514.8
2016-Apr-29 19:31N 31°44' E 032°17'1414.9
2016-Apr-29 18:34N 31°45' E 032°01'  
2016-Apr-26 04:33N 31°57' E 032°37'1614.8
2016-Apr-26 03:27N 32°13' E 032°40'1111.4
2016-Apr-26 02:28N 32°24' E 032°45'1212.9
2016-Apr-26 01:33N 32°35' E 032°42'1313.0
2016-Apr-26 00:33N 32°47' E 032°46'1313.2
2016-Apr-25 23:33N 33°00' E 032°48'1414.3
2016-Apr-25 22:33N 33°15' E 032°51'1514.9
2016-Apr-25 21:33N 33°29' E 032°54'1515.0
2016-Apr-25 20:33N 33°44' E 032°57'1515.0
2016-Apr-25 19:33N 33°59' E 032°59'1714.9
2016-Apr-25 18:27N 34°15' E 033°02'1415.2
2016-Apr-25 17:33N 34°29' E 033°05'1110.7
2016-Apr-25 16:34N 34°39' E 033°01'0 0.2
2016-Apr-25 15:26N 34°39' E 033°01'0 0.0
2016-Apr-25 14:32N 34°39' E 033°01'0 0.0
2016-Apr-25 13:32N 34°39' E 033°01'0 0.0
2016-Apr-25 12:32N 34°39' E 033°01'0 0.0
2016-Apr-25 11:32N 34°39' E 033°01'0 0.0
2016-Apr-25 10:32N 34°39' E 033°01'0 0.0
2016-Apr-25 09:32N 34°39' E 033°01'0 0.0
2016-Apr-25 08:32N 34°39' E 033°01'0 0.0
2016-Apr-25 07:32N 34°39' E 033°01'0 0.0
2016-Apr-25 06:20N 34°39' E 033°01'0 0.0
2016-Apr-25 05:32N 34°39' E 033°01'0 0.0
2016-Apr-25 04:17N 34°39' E 033°01'1 1.4
2016-Apr-25 03:33N 34°39' E 033°02'3 3.0
2016-Apr-25 02:34N 34°40' E 033°05'0 0.0
2016-Apr-24 22:20N 34°40' E 033°05'0 0.0
2016-Apr-24 19:16N 34°40' E 033°05'0 0.2
2016-Apr-24 18:28N 34°40' E 033°05'0 0.1
2016-Apr-24 17:31N 34°40' E 033°05'0 0.2
2016-Apr-24 16:33N 34°40' E 033°05'6 6.3
2016-Apr-24 15:33N 34°39' E 033°13'1515.0
2016-Apr-24 14:34N 34°43' E 033°30'1515.1
2016-Apr-24 13:33N 34°49' E 033°48'1514.8
2016-Apr-24 12:33N 34°54' E 034°04'1414.3
2016-Apr-24 11:33N 35°01' E 034°20'1414.1
2016-Apr-24 10:33N 35°08' E 034°35'1514.7
2016-Apr-24 09:33N 35°15' E 034°51'1514.7
2016-Apr-24 08:33N 35°22' E 035°07'2014.6
2016-Apr-24 07:11N 35°31' E 035°28'1014.6
2016-Apr-24 06:31N 35°32' E 035°40'5 5.0
2016-Apr-24 05:33N 35°32' E 035°46'0 0.0
2016-Apr-24 04:33N 35°32' E 035°46'0 0.0
2016-Apr-24 03:33N 35°32' E 035°46'0 0.0
2016-Apr-24 02:33N 35°32' E 035°46'0 0.0
2016-Apr-24 01:33N 35°32' E 035°46'0 0.0
2016-Apr-24 00:33N 35°32' E 035°46'0 0.0
2016-Apr-23 23:33N 35°32' E 035°46'  

Dump ship's entire track history